Time;durP1;ratioP1;P1;durP2;ratioP2;P2;SDS_P1;SDS_P2;PMS_P1;PMS_P2;Temp;Humidity;BMP_temperature;BMP_pressure;BME280_temperature;BME280_humidity;BME280_pressure;Samples;Min_cycle;Max_cycle;Signal;HPM_P1;HPM_P2
2024/02/18 00:00:12;;;;;;;6.82;5.35;;;;;;;;;;1290332;23;20000;-74
2024/02/18 00:00:43;;;;;;;5.90;5.45;;;;;;;;;;1290653;23;20091;-73
2024/02/18 00:01:17;;;;;;;7.07;4.60;;;;;;;;;;1290427;23;20003;-74
2024/02/18 00:01:47;;;;;;;4.05;3.00;;;;;;;;;;1285066;23;20039;-74
2024/02/18 00:02:18;;;;;;;3.55;2.80;;;;;;;;;;1290606;22;20008;-74
2024/02/18 00:02:48;;;;;;;4.75;3.17;;;;;;;;;;1284439;23;20014;-74
2024/02/18 00:03:19;;;;;;;7.78;4.13;;;;;;;;;;1284238;23;20032;-74
2024/02/18 00:03:49;;;;;;;7.03;6.03;;;;;;;;;;1290411;23;20388;-74
2024/02/18 00:04:20;;;;;;;5.68;5.28;;;;;;;;;;1284229;23;20087;-73
2024/02/18 00:04:50;;;;;;;7.10;6.55;;;;;;;;;;1290854;23;20405;-73
2024/02/18 00:05:20;;;;;;;7.35;5.18;;;;;;;;;;1290509;23;20014;-73
2024/02/18 00:05:51;;;;;;;5.93;4.72;;;;;;;;;;1290724;22;20019;-74
2024/02/18 00:06:22;;;;;;;5.68;5.03;;;;;;;;;;1290444;23;20004;-74
2024/02/18 00:06:53;;;;;;;14.30;8.50;;;;;;;;;;1290870;23;20008;-75
2024/02/18 00:07:23;;;;;;;6.68;5.85;;;;;;;;;;1290213;22;20008;-75
2024/02/18 00:07:54;;;;;;;12.23;11.05;;;;;;;;;;1284532;23;20009;-74
2024/02/18 00:08:24;;;;;;;4.43;4.18;;;;;;;;;;1290604;23;20046;-73
2024/02/18 00:08:55;;;;;;;8.05;4.88;;;;;;;;;;1290806;23;20004;-74
2024/02/18 00:09:25;;;;;;;15.07;9.07;;;;;;;;;;1290458;22;20076;-75
2024/02/18 00:09:56;;;;;;;8.35;7.78;;;;;;;;;;1297402;22;20057;-75
2024/02/18 00:10:26;;;;;;;4.20;2.65;;;;;;;;;;1297161;22;20007;-74
2024/02/18 00:10:57;;;;;;;5.55;4.97;;;;;;;;;;1297524;22;20003;-74
2024/02/18 00:11:27;;;;;;;11.60;8.57;;;;;;;;;;1297211;22;20007;-74
2024/02/18 00:11:58;;;;;;;10.98;8.07;;;;;;;;;;1297346;22;20004;-75
2024/02/18 00:12:28;;;;;;;11.77;6.30;;;;;;;;;;1297240;22;20110;-75
2024/02/18 00:12:59;;;;;;;12.95;6.93;;;;;;;;;;1297485;22;20034;-75
2024/02/18 00:13:29;;;;;;;7.43;6.80;;;;;;;;;;1290303;23;20083;-74
2024/02/18 00:14:00;;;;;;;5.60;5.05;;;;;;;;;;1290662;23;20008;-74
2024/02/18 00:14:30;;;;;;;22.88;5.85;;;;;;;;;;1290315;23;20008;-74
2024/02/18 00:15:01;;;;;;;8.77;7.80;;;;;;;;;;1290549;22;20008;-74
2024/02/18 00:15:31;;;;;;;4.40;4.10;;;;;;;;;;1297174;22;20090;-74
2024/02/18 00:16:02;;;;;;;18.02;5.78;;;;;;;;;;1297398;22;20371;-75
2024/02/18 00:16:32;;;;;;;8.85;5.63;;;;;;;;;;1297232;22;20004;-74
2024/02/18 00:17:03;;;;;;;6.60;6.05;;;;;;;;;;1297413;22;20007;-74
2024/02/18 00:17:33;;;;;;;5.40;3.63;;;;;;;;;;1297081;22;20499;-74
2024/02/18 00:18:04;;;;;;;4.97;4.68;;;;;;;;;;1297369;22;20427;-74
2024/02/18 00:18:35;;;;;;;7.45;6.82;;;;;;;;;;1297240;22;20000;-74
2024/02/18 00:19:07;;;;;;;8.40;5.80;;;;;;;;;;1290383;23;20008;-75
2024/02/18 00:19:38;;;;;;;6.15;5.72;;;;;;;;;;1290461;23;20004;-75
2024/02/18 00:20:11;;;;;;;13.60;5.93;;;;;;;;;;1290498;23;20000;-74
2024/02/18 00:20:41;;;;;;;6.28;5.78;;;;;;;;;;1285069;23;20338;-74
2024/02/18 00:21:16;;;;;;;9.63;7.03;;;;;;;;;;1290657;23;20011;-74
2024/02/18 00:21:46;;;;;;;7.65;6.13;;;;;;;;;;1290570;23;20004;-74
2024/02/18 00:22:17;;;;;;;4.90;4.10;;;;;;;;;;1291466;22;20032;-74
2024/02/18 00:22:47;;;;;;;9.80;3.38;;;;;;;;;;1297576;22;20057;-74
2024/02/18 00:23:18;;;;;;;9.27;5.93;;;;;;;;;;1297169;22;20003;-74
2024/02/18 00:23:48;;;;;;;5.63;4.90;;;;;;;;;;1297273;22;20007;-74
2024/02/18 00:24:19;;;;;;;7.28;6.65;;;;;;;;;;1297294;22;20011;-74
2024/02/18 00:24:52;;;;;;;6.43;5.93;;;;;;;;;;1297434;22;20008;-74
2024/02/18 00:25:23;;;;;;;9.27;4.72;;;;;;;;;;1297113;22;20058;-74
2024/02/18 00:25:54;;;;;;;5.43;4.93;;;;;;;;;;1297380;22;20007;-74
2024/02/18 00:26:25;;;;;;;11.68;6.15;;;;;;;;;;1290291;23;20008;-74
2024/02/18 00:26:56;;;;;;;10.15;6.25;;;;;;;;;;1290644;23;20059;-74
2024/02/18 00:27:26;;;;;;;13.10;10.02;;;;;;;;;;1290256;22;20023;-74
2024/02/18 00:27:57;;;;;;;14.15;8.27;;;;;;;;;;1290885;22;20417;-74
2024/02/18 00:28:27;;;;;;;6.32;4.07;;;;;;;;;;1290392;23;20015;-73
2024/02/18 00:28:58;;;;;;;8.82;6.43;;;;;;;;;;1290685;23;20481;-74
2024/02/18 00:29:28;;;;;;;3.30;3.03;;;;;;;;;;1290426;23;20015;-74
2024/02/18 00:29:59;;;;;;;5.15;4.78;;;;;;;;;;1290697;22;20086;-74
2024/02/18 00:30:29;;;;;;;11.32;8.15;;;;;;;;;;1296924;22;20008;-74
2024/02/18 00:31:00;;;;;;;9.40;4.88;;;;;;;;;;1290548;23;20004;-74
2024/02/18 00:31:30;;;;;;;6.20;5.07;;;;;;;;;;1290374;23;20008;-74
2024/02/18 00:32:01;;;;;;;17.52;6.25;;;;;;;;;;1290622;22;20491;-74
2024/02/18 00:32:31;;;;;;;11.48;6.88;;;;;;;;;;1290619;22;20053;-75
2024/02/18 00:33:03;;;;;;;4.88;4.43;;;;;;;;;;1290707;23;20405;-74
2024/02/18 00:33:33;;;;;;;8.93;7.50;;;;;;;;;;1290314;23;20318;-74
2024/02/18 00:34:03;;;;;;;10.85;5.80;;;;;;;;;;1290698;23;20010;-74
2024/02/18 00:34:34;;;;;;;5.35;4.95;;;;;;;;;;1290771;22;20063;-75
2024/02/18 00:35:05;;;;;;;9.40;4.63;;;;;;;;;;1297402;22;20377;-74
2024/02/18 00:35:35;;;;;;;3.90;3.53;;;;;;;;;;1297136;22;20039;-74
2024/02/18 00:36:06;;;;;;;3.58;3.28;;;;;;;;;;1297352;22;20416;-74
2024/02/18 00:36:37;;;;;;;3.47;3.20;;;;;;;;;;1297252;22;20007;-74
2024/02/18 00:37:07;;;;;;;3.60;3.40;;;;;;;;;;1297240;22;20014;-74
2024/02/18 00:37:38;;;;;;;11.77;10.38;;;;;;;;;;1297249;22;20015;-74
2024/02/18 00:38:08;;;;;;;6.15;4.38;;;;;;;;;;1297227;22;20034;-74
2024/02/18 00:38:39;;;;;;;3.30;3.00;;;;;;;;;;1297014;22;20008;-74
2024/02/18 00:39:09;;;;;;;3.92;3.58;;;;;;;;;;1290520;23;20004;-74
2024/02/18 00:39:40;;;;;;;8.88;7.75;;;;;;;;;;1283979;23;20429;-74
2024/02/18 00:40:10;;;;;;;9.52;5.72;;;;;;;;;;1284333;23;20064;-74
2024/02/18 00:40:41;;;;;;;10.57;5.25;;;;;;;;;;1278071;23;20037;-74
2024/02/18 00:41:11;;;;;;;5.18;4.85;;;;;;;;;;1284601;23;20436;-74
2024/02/18 00:41:42;;;;;;;5.47;4.95;;;;;;;;;;1290454;23;20082;-74
2024/02/18 00:42:12;;;;;;;6.07;5.57;;;;;;;;;;1290533;22;20063;-73
2024/02/18 00:42:43;;;;;;;3.00;2.80;;;;;;;;;;1297424;22;20012;-74
2024/02/18 00:43:13;;;;;;;4.47;4.18;;;;;;;;;;1290347;23;20004;-74
2024/02/18 00:43:44;;;;;;;5.78;5.45;;;;;;;;;;1290639;23;20007;-74
2024/02/18 00:44:15;;;;;;;13.75;5.80;;;;;;;;;;1290406;23;20032;-74
2024/02/18 00:44:45;;;;;;;11.02;4.00;;;;;;;;;;1284602;23;20008;-74
2024/02/18 00:45:16;;;;;;;9.88;5.53;;;;;;;;;;1284194;23;20087;-74
2024/02/18 00:45:46;;;;;;;6.00;5.57;;;;;;;;;;1284349;23;20009;-73
2024/02/18 00:46:17;;;;;;;6.32;5.80;;;;;;;;;;1284219;23;20005;-74
2024/02/18 00:46:48;;;;;;;8.45;4.70;;;;;;;;;;1284469;23;20318;-74
2024/02/18 00:47:18;;;;;;;8.75;4.78;;;;;;;;;;1284016;23;20008;-74
2024/02/18 00:47:49;;;;;;;2.03;1.92;;;;;;;;;;1284379;23;20009;-75
2024/02/18 00:48:20;;;;;;;5.50;5.00;;;;;;;;;;1284602;23;20011;-75
2024/02/18 00:48:50;;;;;;;13.70;6.65;;;;;;;;;;1290932;22;20004;-74
2024/02/18 00:49:21;;;;;;;9.07;7.95;;;;;;;;;;1297097;22;20008;-74
2024/02/18 00:49:51;;;;;;;5.40;4.95;;;;;;;;;;1297339;22;20343;-74
2024/02/18 00:50:22;;;;;;;8.65;4.80;;;;;;;;;;1297199;22;20008;-74
2024/02/18 00:50:52;;;;;;;5.35;4.90;;;;;;;;;;1297416;22;20010;-74
2024/02/18 00:51:23;;;;;;;11.05;4.55;;;;;;;;;;1297056;22;20012;-74
2024/02/18 00:51:53;;;;;;;10.63;9.63;;;;;;;;;;1297199;22;20024;-74
2024/02/18 00:52:24;;;;;;;6.65;4.35;;;;;;;;;;1296989;22;20003;-74
2024/02/18 00:52:54;;;;;;;12.70;5.68;;;;;;;;;;1297391;22;20008;-74
2024/02/18 00:53:25;;;;;;;10.82;6.32;;;;;;;;;;1290242;23;20028;-73
2024/02/18 00:53:56;;;;;;;10.75;5.68;;;;;;;;;;1284245;23;20095;-74
2024/02/18 00:54:26;;;;;;;6.07;4.28;;;;;;;;;;1284089;23;20007;-74
2024/02/18 00:54:57;;;;;;;4.32;3.22;;;;;;;;;;1284721;23;20011;-73
2024/02/18 00:55:27;;;;;;;20.83;6.10;;;;;;;;;;1290576;22;20321;-74
2024/02/18 00:55:58;;;;;;;8.77;5.90;;;;;;;;;;1297302;22;20011;-74
2024/02/18 00:56:28;;;;;;;15.70;3.42;;;;;;;;;;1297256;22;20010;-74
2024/02/18 00:56:59;;;;;;;7.65;6.90;;;;;;;;;;1290447;22;20000;-73
2024/02/18 00:57:29;;;;;;;7.80;6.85;;;;;;;;;;1290422;23;20010;-74
2024/02/18 00:58:00;;;;;;;6.75;4.95;;;;;;;;;;1290539;23;20095;-74
2024/02/18 00:58:30;;;;;;;8.85;5.15;;;;;;;;;;1290592;22;20011;-74
2024/02/18 00:59:01;;;;;;;11.82;5.97;;;;;;;;;;1297402;22;20026;-74
2024/02/18 00:59:31;;;;;;;6.85;5.75;;;;;;;;;;1296982;22;20086;-74
2024/02/18 01:00:02;;;;;;;14.60;7.68;;;;;;;;;;1297300;22;20324;-74
2024/02/18 01:00:33;;;;;;;5.22;4.82;;;;;;;;;;1296888;22;20083;-74
2024/02/18 01:01:05;;;;;;;9.95;5.88;;;;;;;;;;1297406;22;20011;-74
2024/02/18 01:01:35;;;;;;;25.35;8.73;;;;;;;;;;1290239;23;20007;-74
2024/02/18 01:02:06;;;;;;;15.15;6.85;;;;;;;;;;1290464;22;20120;-74
2024/02/18 01:02:36;;;;;;;11.35;4.55;;;;;;;;;;1290391;23;20058;-74
2024/02/18 01:03:08;;;;;;;10.75;9.18;;;;;;;;;;1290766;22;20007;-74
2024/02/18 01:03:38;;;;;;;6.57;5.95;;;;;;;;;;1297189;22;20416;-74
2024/02/18 01:04:10;;;;;;;13.75;7.63;;;;;;;;;;1290397;23;20039;-74
2024/02/18 01:04:40;;;;;;;10.10;4.20;;;;;;;;;;1284092;23;20087;-74
2024/02/18 01:05:11;;;;;;;18.02;5.32;;;;;;;;;;1290579;23;20008;-74
2024/02/18 01:05:41;;;;;;;7.82;5.60;;;;;;;;;;1290735;22;20039;-74
2024/02/18 01:06:12;;;;;;;15.05;8.68;;;;;;;;;;1296933;22;20008;-74
2024/02/18 01:06:42;;;;;;;4.57;4.20;;;;;;;;;;1303281;22;20033;-74
2024/02/18 01:07:13;;;;;;;15.07;7.07;;;;;;;;;;1290150;22;20012;-74
2024/02/18 01:07:43;;;;;;;6.15;5.57;;;;;;;;;;1284190;23;20132;-74
2024/02/18 01:08:14;;;;;;;9.82;7.72;;;;;;;;;;1284081;23;20008;-74
2024/02/18 01:08:45;;;;;;;10.43;4.80;;;;;;;;;;1284513;23;20441;-74
2024/02/18 01:09:15;;;;;;;4.85;4.55;;;;;;;;;;1290391;22;20424;-73
2024/02/18 01:09:48;;;;;;;8.70;5.38;;;;;;;;;;1296868;22;20038;-73
2024/02/18 01:10:19;;;;;;;7.85;6.35;;;;;;;;;;1296794;22;20007;-73
2024/02/18 01:10:49;;;;;;;13.70;8.60;;;;;;;;;;1297042;22;20010;-74
2024/02/18 01:11:20;;;;;;;21.52;9.77;;;;;;;;;;1297040;22;20031;-74
2024/02/18 01:11:50;;;;;;;20.70;5.63;;;;;;;;;;1297157;22;20015;-74
2024/02/18 01:12:21;;;;;;;3.58;3.35;;;;;;;;;;1290262;22;20083;-74
2024/02/18 01:12:51;;;;;;;7.43;4.35;;;;;;;;;;1290691;23;20000;-74
2024/02/18 01:13:22;;;;;;;6.45;5.78;;;;;;;;;;1283922;23;20009;-74
2024/02/18 01:13:53;;;;;;;9.80;8.63;;;;;;;;;;1284402;23;20079;-73
2024/02/18 01:14:23;;;;;;;10.88;7.78;;;;;;;;;;1290442;23;20008;-74
2024/02/18 01:14:54;;;;;;;7.05;6.45;;;;;;;;;;1290296;22;20479;-74
2024/02/18 01:15:24;;;;;;;16.88;7.72;;;;;;;;;;1296993;22;20308;-74
2024/02/18 01:15:54;;;;;;;7.13;3.20;;;;;;;;;;1297294;22;20003;-74
2024/02/18 01:16:27;;;;;;;3.03;2.65;;;;;;;;;;1290280;23;20007;-74
2024/02/18 01:16:58;;;;;;;21.25;6.53;;;;;;;;;;1290625;23;20012;-74
2024/02/18 01:17:29;;;;;;;8.68;7.55;;;;;;;;;;1290308;22;20008;-74
2024/02/18 01:17:59;;;;;;;13.75;8.25;;;;;;;;;;1291225;22;20000;-73
2024/02/18 01:18:30;;;;;;;18.58;8.23;;;;;;;;;;1297101;22;20000;-73
2024/02/18 01:19:00;;;;;;;9.25;8.32;;;;;;;;;;1297347;22;20315;-73
2024/02/18 01:19:31;;;;;;;5.50;5.00;;;;;;;;;;1296976;22;20064;-74
2024/02/18 01:20:01;;;;;;;8.43;6.75;;;;;;;;;;1290376;23;20337;-74
2024/02/18 01:20:32;;;;;;;16.75;10.48;;;;;;;;;;1290443;23;20015;-74
2024/02/18 01:21:02;;;;;;;11.13;6.55;;;;;;;;;;1284273;23;20066;-74
2024/02/18 01:21:33;;;;;;;7.63;6.03;;;;;;;;;;1284189;23;20019;-74
2024/02/18 01:22:04;;;;;;;2.53;2.38;;;;;;;;;;1290274;22;20023;-74
2024/02/18 01:22:35;;;;;;;9.57;5.28;;;;;;;;;;1290591;22;20427;-74
2024/02/18 01:23:05;;;;;;;14.98;5.32;;;;;;;;;;1297250;22;20006;-74
2024/02/18 01:23:36;;;;;;;7.20;5.95;;;;;;;;;;1296973;22;20007;-74
2024/02/18 01:24:07;;;;;;;6.72;5.00;;;;;;;;;;1297294;22;20141;-74
2024/02/18 01:24:38;;;;;;;12.05;3.70;;;;;;;;;;1297189;22;20385;-74
2024/02/18 01:25:08;;;;;;;9.32;6.85;;;;;;;;;;1297271;22;20008;-74
2024/02/18 01:25:39;;;;;;;8.07;7.25;;;;;;;;;;1297053;22;20082;-74
2024/02/18 01:26:09;;;;;;;12.68;5.15;;;;;;;;;;1297249;22;20066;-74
2024/02/18 01:26:40;;;;;;;7.82;7.05;;;;;;;;;;1290317;23;20010;-74
2024/02/18 01:27:10;;;;;;;7.45;4.55;;;;;;;;;;1290503;22;20003;-75
2024/02/18 01:27:41;;;;;;;6.50;4.57;;;;;;;;;;1290377;23;20030;-75
2024/02/18 01:28:11;;;;;;;10.55;9.50;;;;;;;;;;1290447;22;20020;-74
2024/02/18 01:28:42;;;;;;;14.25;9.75;;;;;;;;;;1296859;22;20446;-74
2024/02/18 01:29:12;;;;;;;41.70;6.47;;;;;;;;;;1297173;22;20011;-74
2024/02/18 01:29:43;;;;;;;5.68;4.70;;;;;;;;;;1290341;23;20008;-74
2024/02/18 01:30:13;;;;;;;21.92;10.20;;;;;;;;;;1290398;23;20008;-75
2024/02/18 01:30:44;;;;;;;9.65;6.95;;;;;;;;;;1284289;23;20004;-74
2024/02/18 01:31:14;;;;;;;12.07;7.60;;;;;;;;;;1284311;23;20004;-74
2024/02/18 01:31:45;;;;;;;6.78;5.45;;;;;;;;;;1284056;23;20051;-74
2024/02/18 01:32:15;;;;;;;13.38;7.45;;;;;;;;;;1284160;23;20313;-74
2024/02/18 01:32:46;;;;;;;15.07;9.88;;;;;;;;;;1290659;23;20087;-74
2024/02/18 01:33:17;;;;;;;7.85;5.93;;;;;;;;;;1290727;22;20036;-74
2024/02/18 01:33:47;;;;;;;14.07;8.70;;;;;;;;;;1290248;23;20008;-74
2024/02/18 01:34:18;;;;;;;15.45;8.63;;;;;;;;;;1290175;23;20004;-74
2024/02/18 01:34:49;;;;;;;17.58;7.22;;;;;;;;;;1290700;23;20035;-74
2024/02/18 01:35:19;;;;;;;20.33;8.45;;;;;;;;;;1290435;22;20132;-74
2024/02/18 01:35:50;;;;;;;7.60;6.45;;;;;;;;;;1297127;22;20014;-74
2024/02/18 01:36:20;;;;;;;13.00;7.38;;;;;;;;;;1297189;22;20035;-74
2024/02/18 01:36:51;;;;;;;10.13;7.78;;;;;;;;;;1297302;22;20070;-74
2024/02/18 01:37:22;;;;;;;9.48;8.63;;;;;;;;;;1289904;22;20008;-74
2024/02/18 01:37:52;;;;;;;5.63;4.68;;;;;;;;;;1290486;23;20447;-73
2024/02/18 01:38:23;;;;;;;10.15;6.47;;;;;;;;;;1290445;23;20015;-74
2024/02/18 01:38:53;;;;;;;27.48;7.95;;;;;;;;;;1290572;22;20012;-74
2024/02/18 01:39:23;;;;;;;8.27;7.25;;;;;;;;;;1296698;22;20411;-74
2024/02/18 01:39:54;;;;;;;13.90;6.95;;;;;;;;;;1296867;22;20007;-73
2024/02/18 01:40:25;;;;;;;15.68;6.22;;;;;;;;;;1296705;22;20403;-74
2024/02/18 01:40:55;;;;;;;12.77;9.40;;;;;;;;;;1297331;22;20018;-74
2024/02/18 01:41:26;;;;;;;13.65;8.07;;;;;;;;;;1296931;22;19996;-74
2024/02/18 01:41:57;;;;;;;4.15;3.75;;;;;;;;;;1297153;22;20010;-75
2024/02/18 01:42:27;;;;;;;10.05;4.07;;;;;;;;;;1290130;22;20004;-74
2024/02/18 01:42:58;;;;;;;8.07;4.93;;;;;;;;;;1284212;23;20004;-74
2024/02/18 01:43:28;;;;;;;7.30;5.05;;;;;;;;;;1277673;23;20004;-75
2024/02/18 01:43:59;;;;;;;10.60;4.35;;;;;;;;;;1271857;23;19998;-74
2024/02/18 01:44:29;;;;;;;7.40;6.07;;;;;;;;;;1278050;23;20164;-74
2024/02/18 01:45:00;;;;;;;8.02;4.25;;;;;;;;;;1284398;23;20032;-73
2024/02/18 01:45:30;;;;;;;6.85;6.22;;;;;;;;;;1290408;22;20030;-74
2024/02/18 01:46:01;;;;;;;6.72;4.80;;;;;;;;;;1290269;23;20075;-74
2024/02/18 01:46:31;;;;;;;7.93;6.72;;;;;;;;;;1283982;23;20441;-74
2024/02/18 01:47:02;;;;;;;13.18;6.90;;;;;;;;;;1284324;23;20008;-74
2024/02/18 01:47:35;;;;;;;9.73;8.15;;;;;;;;;;1284129;23;20005;-74
2024/02/18 01:48:05;;;;;;;4.07;3.55;;;;;;;;;;1284731;23;20009;-74
2024/02/18 01:48:36;;;;;;;6.38;5.45;;;;;;;;;;1290379;23;20006;-74
2024/02/18 01:49:07;;;;;;;23.67;6.10;;;;;;;;;;1290591;23;20086;-74
2024/02/18 01:49:38;;;;;;;11.98;10.68;;;;;;;;;;1284117;23;20015;-74
2024/02/18 01:50:08;;;;;;;30.10;9.48;;;;;;;;;;1290142;23;20004;-74
2024/02/18 01:50:39;;;;;;;28.40;8.98;;;;;;;;;;1290202;23;20444;-74
2024/02/18 01:51:10;;;;;;;11.52;5.80;;;;;;;;;;1290868;22;20416;-74
2024/02/18 01:51:40;;;;;;;22.73;7.30;;;;;;;;;;1296953;22;20004;-74
2024/02/18 01:52:12;;;;;;;16.80;10.50;;;;;;;;;;1296923;22;20004;-73
2024/02/18 01:52:43;;;;;;;10.85;5.43;;;;;;;;;;1297217;22;19999;-73
2024/02/18 01:53:14;;;;;;;7.45;6.68;;;;;;;;;;1297095;22;19999;-74
2024/02/18 01:53:45;;;;;;;7.32;5.93;;;;;;;;;;1297139;22;20008;-74
2024/02/18 01:54:16;;;;;;;5.53;4.82;;;;;;;;;;1297029;22;20309;-75
2024/02/18 01:54:46;;;;;;;18.27;9.00;;;;;;;;;;1297371;22;20003;-74
2024/02/18 01:55:17;;;;;;;11.40;6.60;;;;;;;;;;1297033;22;20438;-74
2024/02/18 01:55:48;;;;;;;9.35;6.63;;;;;;;;;;1297002;22;20008;-74
2024/02/18 01:56:20;;;;;;;9.52;7.03;;;;;;;;;;1297114;22;20065;-74
2024/02/18 01:56:51;;;;;;;17.90;7.53;;;;;;;;;;1290467;23;20518;-74
2024/02/18 01:57:24;;;;;;;13.02;6.00;;;;;;;;;;1290154;22;20011;-74
2024/02/18 01:57:55;;;;;;;8.73;7.97;;;;;;;;;;1284086;23;20075;-74
2024/02/18 01:58:26;;;;;;;9.13;7.57;;;;;;;;;;1284839;23;20023;-74
2024/02/18 01:58:56;;;;;;;18.45;6.18;;;;;;;;;;1284317;23;20392;-74
2024/02/18 01:59:28;;;;;;;13.57;6.53;;;;;;;;;;1284229;23;20071;-74
2024/02/18 01:59:59;;;;;;;14.13;7.68;;;;;;;;;;1290390;23;20359;-74
2024/02/18 02:00:30;;;;;;;12.73;9.50;;;;;;;;;;1291067;22;20011;-74
2024/02/18 02:01:01;;;;;;;14.23;7.45;;;;;;;;;;1297245;22;20011;-74
2024/02/18 02:01:33;;;;;;;16.10;9.13;;;;;;;;;;1296889;22;19999;-74
2024/02/18 02:02:03;;;;;;;10.63;5.13;;;;;;;;;;1297067;22;20007;-74
2024/02/18 02:02:34;;;;;;;11.70;9.52;;;;;;;;;;1297102;22;20008;-74
2024/02/18 02:03:05;;;;;;;10.73;7.90;;;;;;;;;;1290439;23;20050;-74
2024/02/18 02:03:37;;;;;;;14.48;8.27;;;;;;;;;;1290096;23;20008;-75
2024/02/18 02:04:08;;;;;;;13.32;7.32;;;;;;;;;;1290526;23;20079;-74
2024/02/18 02:04:38;;;;;;;21.08;9.65;;;;;;;;;;1291080;22;20031;-74
2024/02/18 02:05:12;;;;;;;13.73;9.60;;;;;;;;;;1296897;22;20038;-74
2024/02/18 02:05:44;;;;;;;14.07;9.73;;;;;;;;;;1297087;22;20030;-74
2024/02/18 02:06:15;;;;;;;36.13;11.00;;;;;;;;;;1290128;23;20008;-74
2024/02/18 02:06:45;;;;;;;23.13;6.43;;;;;;;;;;1284184;23;20009;-74
2024/02/18 02:07:16;;;;;;;14.70;6.57;;;;;;;;;;1283787;23;19997;-74
2024/02/18 02:07:50;;;;;;;14.35;9.00;;;;;;;;;;1284423;23;20313;-74
2024/02/18 02:08:22;;;;;;;21.83;9.38;;;;;;;;;;1291180;22;20055;-74
2024/02/18 02:08:53;;;;;;;14.20;4.57;;;;;;;;;;1296830;22;20011;-74
2024/02/18 02:09:24;;;;;;;12.98;6.40;;;;;;;;;;1296605;22;20083;-74
2024/02/18 02:09:54;;;;;;;7.13;5.97;;;;;;;;;;1297159;22;20332;-74
2024/02/18 02:10:25;;;;;;;5.03;4.53;;;;;;;;;;1290161;23;20404;-74
2024/02/18 02:10:55;;;;;;;18.45;10.65;;;;;;;;;;1290590;23;20039;-74
2024/02/18 02:11:26;;;;;;;10.77;9.60;;;;;;;;;;1290249;23;20403;-74
2024/02/18 02:11:57;;;;;;;11.43;10.40;;;;;;;;;;1284113;23;20005;-73
2024/02/18 02:12:27;;;;;;;12.88;8.35;;;;;;;;;;1290225;22;20008;-74
2024/02/18 02:12:58;;;;;;;5.07;4.65;;;;;;;;;;1284176;23;20016;-74
2024/02/18 02:13:28;;;;;;;7.28;6.50;;;;;;;;;;1284127;23;20012;-74
2024/02/18 02:13:58;;;;;;;18.13;11.73;;;;;;;;;;1290438;23;20000;-74
2024/02/18 02:14:29;;;;;;;12.85;10.63;;;;;;;;;;1290167;22;20567;-74
2024/02/18 02:15:00;;;;;;;11.65;8.27;;;;;;;;;;1296851;22;20000;-74
2024/02/18 02:15:30;;;;;;;15.30;8.02;;;;;;;;;;1290068;23;20054;-74
2024/02/18 02:16:02;;;;;;;26.30;9.05;;;;;;;;;;1290429;23;20423;-74
2024/02/18 02:16:32;;;;;;;12.77;6.43;;;;;;;;;;1283875;23;20004;-74
2024/02/18 02:17:03;;;;;;;41.95;13.27;;;;;;;;;;1290777;22;20008;-74
2024/02/18 02:17:33;;;;;;;14.02;7.22;;;;;;;;;;1296533;22;20007;-73
2024/02/18 02:18:04;;;;;;;38.17;12.60;;;;;;;;;;1297006;22;20396;-73
2024/02/18 02:18:34;;;;;;;10.77;6.95;;;;;;;;;;1302804;22;20074;-74
2024/02/18 02:19:05;;;;;;;19.92;10.95;;;;;;;;;;1297213;22;20004;-74
2024/02/18 02:19:35;;;;;;;10.27;9.50;;;;;;;;;;1290017;23;20535;-73
2024/02/18 02:20:09;;;;;;;23.73;7.38;;;;;;;;;;1290478;23;20512;-74
2024/02/18 02:20:39;;;;;;;10.35;7.90;;;;;;;;;;1290419;23;20357;-74
2024/02/18 02:21:10;;;;;;;26.58;13.00;;;;;;;;;;1284827;23;20031;-74
2024/02/18 02:21:41;;;;;;;21.35;8.63;;;;;;;;;;1290273;23;20087;-74
2024/02/18 02:22:11;;;;;;;9.45;7.20;;;;;;;;;;1283770;23;20087;-74
2024/02/18 02:22:42;;;;;;;10.95;9.45;;;;;;;;;;1284253;23;20393;-74
2024/02/18 02:23:12;;;;;;;18.08;9.05;;;;;;;;;;1290381;23;20004;-74
2024/02/18 02:23:42;;;;;;;16.85;6.88;;;;;;;;;;1284038;23;20004;-74
2024/02/18 02:24:13;;;;;;;18.95;10.15;;;;;;;;;;1290134;23;20012;-74
2024/02/18 02:24:44;;;;;;;15.07;9.48;;;;;;;;;;1290526;23;20007;-74
2024/02/18 02:25:15;;;;;;;19.48;7.03;;;;;;;;;;1290507;22;20448;-74
2024/02/18 02:25:45;;;;;;;22.60;13.70;;;;;;;;;;1290230;23;20416;-75
2024/02/18 02:26:17;;;;;;;18.02;8.90;;;;;;;;;;1290203;23;20011;-74
2024/02/18 02:26:52;;;;;;;16.67;9.15;;;;;;;;;;1284080;23;20056;-74
2024/02/18 02:27:25;;;;;;;7.03;5.93;;;;;;;;;;1285221;23;20008;-74
2024/02/18 02:28:07;;;;;;;12.55;8.23;;;;;;;;;;1290357;23;20031;-74
2024/02/18 02:28:45;;;;;;;13.80;6.15;;;;;;;;;;1294498;22;20539;-74
2024/02/18 02:29:15;;;;;;;7.15;6.55;;;;;;;;;;1296956;22;20003;-74
2024/02/18 02:29:46;;;;;;;23.05;7.45;;;;;;;;;;1296981;22;20082;-74
2024/02/18 02:30:17;;;;;;;24.58;10.05;;;;;;;;;;1290130;23;20562;-74
2024/02/18 02:30:48;;;;;;;9.63;8.48;;;;;;;;;;1290611;23;20046;-74
2024/02/18 02:31:18;;;;;;;7.20;6.53;;;;;;;;;;1290160;23;20000;-74
2024/02/18 02:31:50;;;;;;;9.65;7.05;;;;;;;;;;1290583;22;20010;-74
2024/02/18 02:32:20;;;;;;;16.02;14.40;;;;;;;;;;1296907;22;20003;-74
2024/02/18 02:32:51;;;;;;;15.65;8.63;;;;;;;;;;1297134;22;20004;-74
2024/02/18 02:33:22;;;;;;;15.32;7.75;;;;;;;;;;1290009;23;20004;-74
2024/02/18 02:33:52;;;;;;;11.27;8.77;;;;;;;;;;1290331;23;20000;-74
2024/02/18 02:34:23;;;;;;;14.32;11.20;;;;;;;;;;1283787;23;20526;-75
2024/02/18 02:34:54;;;;;;;22.27;9.95;;;;;;;;;;1278216;23;20016;-75
2024/02/18 02:35:27;;;;;;;19.40;11.40;;;;;;;;;;1283864;23;20056;-74
2024/02/18 02:35:58;;;;;;;12.05;5.63;;;;;;;;;;1284929;23;20091;-74
2024/02/18 02:36:28;;;;;;;17.70;11.75;;;;;;;;;;1291202;22;20008;-74
2024/02/18 02:36:59;;;;;;;9.18;5.78;;;;;;;;;;1297095;22;19996;-74
2024/02/18 02:37:30;;;;;;;20.38;10.32;;;;;;;;;;1296654;22;20150;-74
2024/02/18 02:38:00;;;;;;;11.35;6.43;;;;;;;;;;1290312;23;20340;-74
2024/02/18 02:38:32;;;;;;;12.23;6.60;;;;;;;;;;1290449;23;20031;-74
2024/02/18 02:39:02;;;;;;;18.05;14.65;;;;;;;;;;1290533;23;20008;-74
2024/02/18 02:39:33;;;;;;;12.95;10.02;;;;;;;;;;1284112;23;20079;-75
2024/02/18 02:40:04;;;;;;;15.07;6.75;;;;;;;;;;1284068;23;20011;-75
2024/02/18 02:40:34;;;;;;;9.23;5.82;;;;;;;;;;1283973;23;20008;-75
2024/02/18 02:41:05;;;;;;;19.35;8.10;;;;;;;;;;1284208;23;20008;-74
2024/02/18 02:41:35;;;;;;;12.20;6.88;;;;;;;;;;1290341;22;20011;-75
2024/02/18 02:42:06;;;;;;;12.40;11.05;;;;;;;;;;1296605;22;20000;-74
2024/02/18 02:42:36;;;;;;;15.40;11.88;;;;;;;;;;1290118;23;20357;-74
2024/02/18 02:43:07;;;;;;;14.07;7.97;;;;;;;;;;1284043;23;20531;-74
2024/02/18 02:43:37;;;;;;;7.82;6.65;;;;;;;;;;1283930;23;20001;-74
2024/02/18 02:44:08;;;;;;;13.50;6.78;;;;;;;;;;1284115;23;20004;-74
2024/02/18 02:44:38;;;;;;;21.00;10.73;;;;;;;;;;1283995;23;20004;-75
2024/02/18 02:45:10;;;;;;;14.50;10.50;;;;;;;;;;1284069;23;20035;-74
2024/02/18 02:45:40;;;;;;;13.10;11.73;;;;;;;;;;1283921;23;20468;-74
2024/02/18 02:46:11;;;;;;;21.60;9.40;;;;;;;;;;1284449;23;20048;-74
2024/02/18 02:46:41;;;;;;;7.85;7.10;;;;;;;;;;1284190;23;20030;-74
2024/02/18 02:47:12;;;;;;;15.93;9.18;;;;;;;;;;1290373;22;20008;-74
2024/02/18 02:47:42;;;;;;;13.48;5.53;;;;;;;;;;1290330;23;20058;-74
2024/02/18 02:48:13;;;;;;;12.00;6.07;;;;;;;;;;1290331;22;20047;-75
2024/02/18 02:48:43;;;;;;;32.90;11.82;;;;;;;;;;1297159;22;20008;-74
2024/02/18 02:49:14;;;;;;;22.08;9.10;;;;;;;;;;1290152;23;20004;-74
2024/02/18 02:49:44;;;;;;;13.73;11.35;;;;;;;;;;1290280;23;20000;-74
2024/02/18 02:50:15;;;;;;;41.45;14.10;;;;;;;;;;1290241;23;20062;-75
2024/02/18 02:50:45;;;;;;;39.03;10.35;;;;;;;;;;1284317;23;20427;-74
2024/02/18 02:51:16;;;;;;;27.17;13.45;;;;;;;;;;1290179;23;19996;-74
2024/02/18 02:51:46;;;;;;;18.58;9.57;;;;;;;;;;1290443;23;20028;-74
2024/02/18 02:52:16;;;;;;;29.30;12.10;;;;;;;;;;1290175;22;20004;-74
2024/02/18 02:52:47;;;;;;;13.00;6.32;;;;;;;;;;1297258;22;20374;-75
2024/02/18 02:53:17;;;;;;;15.27;10.57;;;;;;;;;;1296917;22;20007;-74
2024/02/18 02:53:48;;;;;;;11.48;6.50;;;;;;;;;;1290386;23;20027;-74
2024/02/18 02:54:18;;;;;;;31.80;7.55;;;;;;;;;;1290187;23;20011;-74
2024/02/18 02:54:49;;;;;;;14.55;10.75;;;;;;;;;;1284152;23;20007;-74
2024/02/18 02:55:19;;;;;;;17.02;8.70;;;;;;;;;;1284020;23;20487;-74
2024/02/18 02:55:50;;;;;;;18.30;11.20;;;;;;;;;;1290499;23;20041;-74
2024/02/18 02:56:20;;;;;;;9.50;8.60;;;;;;;;;;1283914;23;20000;-74
2024/02/18 02:56:51;;;;;;;21.73;11.75;;;;;;;;;;1290466;23;20011;-74
2024/02/18 02:57:21;;;;;;;12.07;7.50;;;;;;;;;;1290051;22;20075;-74
2024/02/18 02:57:53;;;;;;;18.73;9.10;;;;;;;;;;1290572;22;20000;-73
2024/02/18 02:58:23;;;;;;;8.13;7.40;;;;;;;;;;1297060;22;20008;-74
2024/02/18 02:58:54;;;;;;;7.22;6.53;;;;;;;;;;1297132;22;20004;-74
2024/02/18 02:59:24;;;;;;;7.05;4.28;;;;;;;;;;1296887;22;20004;-73
2024/02/18 02:59:55;;;;;;;17.80;9.25;;;;;;;;;;1297114;22;20309;-73
2024/02/18 03:00:25;;;;;;;11.85;6.40;;;;;;;;;;1296973;22;20147;-74
2024/02/18 03:00:56;;;;;;;8.13;7.40;;;;;;;;;;1297295;22;20003;-74
2024/02/18 03:01:26;;;;;;;21.50;8.15;;;;;;;;;;1296686;22;20008;-74
2024/02/18 03:02:00;;;;;;;20.33;9.95;;;;;;;;;;1289967;22;20032;-74
2024/02/18 03:02:31;;;;;;;18.38;9.18;;;;;;;;;;1290139;23;20027;-74